sensor_id;sensor_type;location;lat;lon;timestamp;temperature;humidity
65582;DHT22;52231;40.090;18.348;2024-01-15T00:01:44;7.60;90.50
65582;DHT22;52231;40.090;18.348;2024-01-15T00:04:12;7.70;90.60
65582;DHT22;52231;40.090;18.348;2024-01-15T00:06:40;7.70;90.60
65582;DHT22;52231;40.090;18.348;2024-01-15T00:09:09;7.70;90.70
65582;DHT22;52231;40.090;18.348;2024-01-15T00:11:37;7.70;90.70
65582;DHT22;52231;40.090;18.348;2024-01-15T00:14:06;7.70;90.70
65582;DHT22;52231;40.090;18.348;2024-01-15T00:16:34;7.60;90.70
65582;DHT22;52231;40.090;18.348;2024-01-15T00:19:02;7.70;90.70
65582;DHT22;52231;40.090;18.348;2024-01-15T00:21:30;7.60;90.70
65582;DHT22;52231;40.090;18.348;2024-01-15T00:23:58;7.70;90.70
65582;DHT22;52231;40.090;18.348;2024-01-15T00:26:26;7.70;90.70
65582;DHT22;52231;40.090;18.348;2024-01-15T00:29:00;7.70;90.70
65582;DHT22;52231;40.090;18.348;2024-01-15T00:31:46;7.70;90.70
65582;DHT22;52231;40.090;18.348;2024-01-15T00:34:14;7.80;90.80
65582;DHT22;52231;40.090;18.348;2024-01-15T00:36:42;7.90;90.80
65582;DHT22;52231;40.090;18.348;2024-01-15T00:39:10;8.00;90.80
65582;DHT22;52231;40.090;18.348;2024-01-15T00:41:39;8.00;90.80
65582;DHT22;52231;40.090;18.348;2024-01-15T00:44:07;8.00;90.70
65582;DHT22;52231;40.090;18.348;2024-01-15T00:46:45;8.00;90.70
65582;DHT22;52231;40.090;18.348;2024-01-15T00:49:13;8.20;90.80
65582;DHT22;52231;40.090;18.348;2024-01-15T00:51:42;8.10;90.70
65582;DHT22;52231;40.090;18.348;2024-01-15T00:54:10;8.20;90.80
65582;DHT22;52231;40.090;18.348;2024-01-15T00:56:38;8.20;90.70
65582;DHT22;52231;40.090;18.348;2024-01-15T00:59:06;8.10;90.70
65582;DHT22;52231;40.090;18.348;2024-01-15T01:01:35;8.10;90.70
65582;DHT22;52231;40.090;18.348;2024-01-15T01:04:05;8.10;90.60
65582;DHT22;52231;40.090;18.348;2024-01-15T01:06:33;8.20;90.70
65582;DHT22;52231;40.090;18.348;2024-01-15T01:09:02;8.10;90.60
65582;DHT22;52231;40.090;18.348;2024-01-15T01:11:30;8.20;90.50
65582;DHT22;52231;40.090;18.348;2024-01-15T01:13:58;8.20;90.50
65582;DHT22;52231;40.090;18.348;2024-01-15T01:16:26;8.30;90.50
65582;DHT22;52231;40.090;18.348;2024-01-15T01:18:54;8.30;90.50
65582;DHT22;52231;40.090;18.348;2024-01-15T01:21:22;8.30;90.50
65582;DHT22;52231;40.090;18.348;2024-01-15T01:23:50;8.30;90.50
65582;DHT22;52231;40.090;18.348;2024-01-15T01:26:19;8.30;90.50
65582;DHT22;52231;40.090;18.348;2024-01-15T01:28:47;8.30;90.50
65582;DHT22;52231;40.090;18.348;2024-01-15T01:31:15;8.30;90.50
65582;DHT22;52231;40.090;18.348;2024-01-15T01:33:44;8.30;90.50
65582;DHT22;52231;40.090;18.348;2024-01-15T01:36:12;8.30;90.40
65582;DHT22;52231;40.090;18.348;2024-01-15T01:38:41;8.30;90.40
65582;DHT22;52231;40.090;18.348;2024-01-15T01:41:09;8.30;90.40
65582;DHT22;52231;40.090;18.348;2024-01-15T01:43:37;8.20;90.40
65582;DHT22;52231;40.090;18.348;2024-01-15T01:46:05;8.30;90.40
65582;DHT22;52231;40.090;18.348;2024-01-15T01:48:35;8.20;90.40
65582;DHT22;52231;40.090;18.348;2024-01-15T01:51:04;8.20;90.40
65582;DHT22;52231;40.090;18.348;2024-01-15T01:53:34;8.20;90.40
65582;DHT22;52231;40.090;18.348;2024-01-15T01:56:03;8.20;90.40
65582;DHT22;52231;40.090;18.348;2024-01-15T01:58:32;8.20;90.40
65582;DHT22;52231;40.090;18.348;2024-01-15T02:01:01;8.20;90.40
65582;DHT22;52231;40.090;18.348;2024-01-15T02:03:30;8.10;90.40
65582;DHT22;52231;40.090;18.348;2024-01-15T02:06:00;8.20;90.50
65582;DHT22;52231;40.090;18.348;2024-01-15T02:08:29;8.20;90.50
65582;DHT22;52231;40.090;18.348;2024-01-15T02:10:57;8.10;90.50
65582;DHT22;52231;40.090;18.348;2024-01-15T02:13:25;8.20;90.60
65582;DHT22;52231;40.090;18.348;2024-01-15T02:15:53;8.20;90.60
65582;DHT22;52231;40.090;18.348;2024-01-15T02:18:21;8.20;90.70
65582;DHT22;52231;40.090;18.348;2024-01-15T02:20:49;8.30;90.80
65582;DHT22;52231;40.090;18.348;2024-01-15T02:23:18;8.30;90.90
65582;DHT22;52231;40.090;18.348;2024-01-15T02:25:46;8.40;90.90
65582;DHT22;52231;40.090;18.348;2024-01-15T02:28:16;8.50;91.00
65582;DHT22;52231;40.090;18.348;2024-01-15T02:30:45;8.50;91.10
65582;DHT22;52231;40.090;18.348;2024-01-15T02:33:14;8.60;91.10
65582;DHT22;52231;40.090;18.348;2024-01-15T02:35:42;8.70;91.20
65582;DHT22;52231;40.090;18.348;2024-01-15T02:38:10;8.60;91.20
65582;DHT22;52231;40.090;18.348;2024-01-15T02:40:38;8.80;91.30
65582;DHT22;52231;40.090;18.348;2024-01-15T02:43:07;8.80;91.30
65582;DHT22;52231;40.090;18.348;2024-01-15T02:45:34;8.80;91.30
65582;DHT22;52231;40.090;18.348;2024-01-15T02:48:03;8.90;91.30
65582;DHT22;52231;40.090;18.348;2024-01-15T02:50:31;8.80;91.20
65582;DHT22;52231;40.090;18.348;2024-01-15T02:52:59;8.90;91.30
65582;DHT22;52231;40.090;18.348;2024-01-15T02:55:27;8.90;91.30
65582;DHT22;52231;40.090;18.348;2024-01-15T02:57:57;8.90;91.30
65582;DHT22;52231;40.090;18.348;2024-01-15T03:00:25;9.00;91.30
65582;DHT22;52231;40.090;18.348;2024-01-15T03:02:56;9.00;91.30
65582;DHT22;52231;40.090;18.348;2024-01-15T03:05:24;9.10;91.30
65582;DHT22;52231;40.090;18.348;2024-01-15T03:07:53;9.10;91.30
65582;DHT22;52231;40.090;18.348;2024-01-15T03:10:21;9.10;91.40
65582;DHT22;52231;40.090;18.348;2024-01-15T03:12:50;9.10;91.30
65582;DHT22;52231;40.090;18.348;2024-01-15T03:15:18;9.10;91.30
65582;DHT22;52231;40.090;18.348;2024-01-15T03:17:46;9.20;91.30
65582;DHT22;52231;40.090;18.348;2024-01-15T03:20:14;9.20;91.40
65582;DHT22;52231;40.090;18.348;2024-01-15T03:22:42;9.20;91.40
65582;DHT22;52231;40.090;18.348;2024-01-15T03:25:11;9.20;91.40
65582;DHT22;52231;40.090;18.348;2024-01-15T03:27:39;9.20;91.40
65582;DHT22;52231;40.090;18.348;2024-01-15T03:30:07;9.20;91.30
65582;DHT22;52231;40.090;18.348;2024-01-15T03:32:35;9.30;91.40
65582;DHT22;52231;40.090;18.348;2024-01-15T03:35:04;9.20;91.40
65582;DHT22;52231;40.090;18.348;2024-01-15T03:37:32;9.20;91.40
65582;DHT22;52231;40.090;18.348;2024-01-15T03:40:00;9.30;91.50
65582;DHT22;52231;40.090;18.348;2024-01-15T03:42:28;9.30;91.50
65582;DHT22;52231;40.090;18.348;2024-01-15T03:44:56;9.30;91.40
65582;DHT22;52231;40.090;18.348;2024-01-15T03:47:24;9.20;91.40
65582;DHT22;52231;40.090;18.348;2024-01-15T03:49:52;9.20;91.40
65582;DHT22;52231;40.090;18.348;2024-01-15T03:52:20;9.20;91.40
65582;DHT22;52231;40.090;18.348;2024-01-15T03:54:48;9.20;91.40
65582;DHT22;52231;40.090;18.348;2024-01-15T03:57:16;9.20;91.30
65582;DHT22;52231;40.090;18.348;2024-01-15T03:59:44;9.20;91.40
65582;DHT22;52231;40.090;18.348;2024-01-15T04:02:15;9.20;91.40
65582;DHT22;52231;40.090;18.348;2024-01-15T04:04:43;9.20;91.40
65582;DHT22;52231;40.090;18.348;2024-01-15T04:07:11;9.10;91.40
65582;DHT22;52231;40.090;18.348;2024-01-15T04:09:39;9.10;91.40
65582;DHT22;52231;40.090;18.348;2024-01-15T04:12:08;9.00;91.30
65582;DHT22;52231;40.090;18.348;2024-01-15T04:14:36;9.10;91.40
65582;DHT22;52231;40.090;18.348;2024-01-15T04:17:04;9.10;91.40
65582;DHT22;52231;40.090;18.348;2024-01-15T04:19:32;9.10;91.40
65582;DHT22;52231;40.090;18.348;2024-01-15T04:22:00;9.10;91.40
65582;DHT22;52231;40.090;18.348;2024-01-15T04:24:28;9.10;91.50
65582;DHT22;52231;40.090;18.348;2024-01-15T04:26:56;9.10;91.50
65582;DHT22;52231;40.090;18.348;2024-01-15T04:29:24;9.00;91.50
65582;DHT22;52231;40.090;18.348;2024-01-15T04:31:53;9.10;91.50
65582;DHT22;52231;40.090;18.348;2024-01-15T04:34:21;9.10;91.60
65582;DHT22;52231;40.090;18.348;2024-01-15T04:36:49;9.10;91.60
65582;DHT22;52231;40.090;18.348;2024-01-15T04:39:18;9.20;91.70
65582;DHT22;52231;40.090;18.348;2024-01-15T04:41:46;9.30;91.70
65582;DHT22;52231;40.090;18.348;2024-01-15T04:44:14;9.20;91.70
65582;DHT22;52231;40.090;18.348;2024-01-15T04:46:42;9.30;91.80
65582;DHT22;52231;40.090;18.348;2024-01-15T04:49:11;9.30;91.90
65582;DHT22;52231;40.090;18.348;2024-01-15T04:51:40;9.30;91.90
65582;DHT22;52231;40.090;18.348;2024-01-15T04:54:08;9.50;92.00
65582;DHT22;52231;40.090;18.348;2024-01-15T04:56:36;9.50;92.00
65582;DHT22;52231;40.090;18.348;2024-01-15T04:59:04;9.50;92.00
65582;DHT22;52231;40.090;18.348;2024-01-15T05:01:33;9.50;91.90
65582;DHT22;52231;40.090;18.348;2024-01-15T05:04:01;9.70;91.90
65582;DHT22;52231;40.090;18.348;2024-01-15T05:06:29;9.70;91.90
65582;DHT22;52231;40.090;18.348;2024-01-15T05:08:57;9.70;91.80
65582;DHT22;52231;40.090;18.348;2024-01-15T05:11:26;9.80;91.80
65582;DHT22;52231;40.090;18.348;2024-01-15T05:13:54;9.80;91.70
65582;DHT22;52231;40.090;18.348;2024-01-15T05:16:22;9.80;91.70
65582;DHT22;52231;40.090;18.348;2024-01-15T05:18:50;9.80;91.60
65582;DHT22;52231;40.090;18.348;2024-01-15T05:21:18;9.80;91.50
65582;DHT22;52231;40.090;18.348;2024-01-15T05:23:46;9.80;91.50
65582;DHT22;52231;40.090;18.348;2024-01-15T05:26:14;9.80;91.40
65582;DHT22;52231;40.090;18.348;2024-01-15T05:28:43;9.80;91.30
65582;DHT22;52231;40.090;18.348;2024-01-15T05:31:11;9.90;91.20
65582;DHT22;52231;40.090;18.348;2024-01-15T05:33:39;9.90;91.20
65582;DHT22;52231;40.090;18.348;2024-01-15T05:36:08;9.90;91.10
65582;DHT22;52231;40.090;18.348;2024-01-15T05:38:36;10.00;91.00
65582;DHT22;52231;40.090;18.348;2024-01-15T05:41:05;10.00;90.90
65582;DHT22;52231;40.090;18.348;2024-01-15T05:43:33;10.10;90.90
65582;DHT22;52231;40.090;18.348;2024-01-15T05:46:01;10.20;90.80
65582;DHT22;52231;40.090;18.348;2024-01-15T05:48:30;10.10;90.50
65582;DHT22;52231;40.090;18.348;2024-01-15T05:50:58;10.30;90.40
65582;DHT22;52231;40.090;18.348;2024-01-15T05:53:26;10.20;90.30
65582;DHT22;52231;40.090;18.348;2024-01-15T05:55:54;10.20;90.20
65582;DHT22;52231;40.090;18.348;2024-01-15T05:58:23;10.30;90.10
65582;DHT22;52231;40.090;18.348;2024-01-15T06:00:51;10.20;90.00
65582;DHT22;52231;40.090;18.348;2024-01-15T06:03:19;10.10;90.00
65582;DHT22;52231;40.090;18.348;2024-01-15T06:05:47;10.10;90.00
65582;DHT22;52231;40.090;18.348;2024-01-15T06:08:16;10.10;90.00
65582;DHT22;52231;40.090;18.348;2024-01-15T06:10:44;10.10;90.00
65582;DHT22;52231;40.090;18.348;2024-01-15T06:13:12;10.10;90.10
65582;DHT22;52231;40.090;18.348;2024-01-15T06:15:41;10.00;90.10
65582;DHT22;52231;40.090;18.348;2024-01-15T06:18:09;10.00;90.10
65582;DHT22;52231;40.090;18.348;2024-01-15T06:20:38;10.10;90.20
65582;DHT22;52231;40.090;18.348;2024-01-15T06:23:06;10.00;90.10
65582;DHT22;52231;40.090;18.348;2024-01-15T06:25:34;10.00;90.00
65582;DHT22;52231;40.090;18.348;2024-01-15T06:28:02;10.00;90.10
65582;DHT22;52231;40.090;18.348;2024-01-15T06:30:32;9.90;89.90
65582;DHT22;52231;40.090;18.348;2024-01-15T06:33:00;10.10;90.00
65582;DHT22;52231;40.090;18.348;2024-01-15T06:35:28;10.00;89.80
65582;DHT22;52231;40.090;18.348;2024-01-15T06:37:57;10.00;89.50
65582;DHT22;52231;40.090;18.348;2024-01-15T06:40:25;10.00;89.30
65582;DHT22;52231;40.090;18.348;2024-01-15T06:42:53;10.00;88.80
65582;DHT22;52231;40.090;18.348;2024-01-15T06:45:21;10.10;88.60
65582;DHT22;52231;40.090;18.348;2024-01-15T06:47:49;10.00;88.40
65582;DHT22;52231;40.090;18.348;2024-01-15T06:50:17;10.10;88.30
65582;DHT22;52231;40.090;18.348;2024-01-15T06:52:45;10.30;88.20
65582;DHT22;52231;40.090;18.348;2024-01-15T06:55:14;10.20;88.20
65582;DHT22;52231;40.090;18.348;2024-01-15T06:57:42;10.20;88.10
65582;DHT22;52231;40.090;18.348;2024-01-15T07:00:10;10.40;88.20
65582;DHT22;52231;40.090;18.348;2024-01-15T07:02:39;10.40;88.30
65582;DHT22;52231;40.090;18.348;2024-01-15T07:05:07;10.40;88.20
65582;DHT22;52231;40.090;18.348;2024-01-15T07:07:36;10.50;88.10
65582;DHT22;52231;40.090;18.348;2024-01-15T07:10:05;10.50;88.10
65582;DHT22;52231;40.090;18.348;2024-01-15T07:12:34;10.60;88.10
65582;DHT22;52231;40.090;18.348;2024-01-15T07:15:02;10.70;88.10
65582;DHT22;52231;40.090;18.348;2024-01-15T07:17:33;10.80;88.10
65582;DHT22;52231;40.090;18.348;2024-01-15T07:20:01;10.90;88.00
65582;DHT22;52231;40.090;18.348;2024-01-15T07:22:29;11.00;87.80
65582;DHT22;52231;40.090;18.348;2024-01-15T07:24:58;11.10;87.70
65582;DHT22;52231;40.090;18.348;2024-01-15T07:27:26;11.30;87.60
65582;DHT22;52231;40.090;18.348;2024-01-15T07:29:54;11.40;87.30
65582;DHT22;52231;40.090;18.348;2024-01-15T07:32:24;11.60;87.10
65582;DHT22;52231;40.090;18.348;2024-01-15T07:34:52;11.60;86.80
65582;DHT22;52231;40.090;18.348;2024-01-15T07:37:20;11.90;86.50
65582;DHT22;52231;40.090;18.348;2024-01-15T07:39:48;12.10;86.40
65582;DHT22;52231;40.090;18.348;2024-01-15T07:42:16;12.20;86.20
65582;DHT22;52231;40.090;18.348;2024-01-15T07:44:44;12.30;86.00
65582;DHT22;52231;40.090;18.348;2024-01-15T07:47:13;12.40;85.90
65582;DHT22;52231;40.090;18.348;2024-01-15T07:49:41;12.60;85.70
65582;DHT22;52231;40.090;18.348;2024-01-15T07:52:09;12.60;85.50
65582;DHT22;52231;40.090;18.348;2024-01-15T07:54:37;12.70;85.60
65582;DHT22;52231;40.090;18.348;2024-01-15T07:57:05;12.60;85.50
65582;DHT22;52231;40.090;18.348;2024-01-15T07:59:34;12.80;85.60
65582;DHT22;52231;40.090;18.348;2024-01-15T08:02:03;12.80;85.50
65582;DHT22;52231;40.090;18.348;2024-01-15T08:04:32;12.80;85.30
65582;DHT22;52231;40.090;18.348;2024-01-15T08:07:01;12.90;85.10
65582;DHT22;52231;40.090;18.348;2024-01-15T08:09:30;12.90;84.80
65582;DHT22;52231;40.090;18.348;2024-01-15T08:11:59;12.90;84.50
65582;DHT22;52231;40.090;18.348;2024-01-15T08:14:27;13.00;84.40
65582;DHT22;52231;40.090;18.348;2024-01-15T08:16:55;13.00;84.10
65582;DHT22;52231;40.090;18.348;2024-01-15T08:19:23;13.00;83.90
65582;DHT22;52231;40.090;18.348;2024-01-15T08:21:51;13.00;83.70
65582;DHT22;52231;40.090;18.348;2024-01-15T08:24:20;13.10;83.60
65582;DHT22;52231;40.090;18.348;2024-01-15T08:26:49;13.20;83.40
65582;DHT22;52231;40.090;18.348;2024-01-15T08:29:17;13.30;83.20
65582;DHT22;52231;40.090;18.348;2024-01-15T08:31:47;13.30;83.10
65582;DHT22;52231;40.090;18.348;2024-01-15T08:34:15;13.40;83.00
65582;DHT22;52231;40.090;18.348;2024-01-15T08:36:43;13.50;82.90
65582;DHT22;52231;40.090;18.348;2024-01-15T08:39:11;13.60;82.80
65582;DHT22;52231;40.090;18.348;2024-01-15T08:41:39;13.70;82.60
65582;DHT22;52231;40.090;18.348;2024-01-15T08:44:07;13.70;82.60
65582;DHT22;52231;40.090;18.348;2024-01-15T08:46:36;13.70;82.50
65582;DHT22;52231;40.090;18.348;2024-01-15T08:49:04;13.80;82.40
65582;DHT22;52231;40.090;18.348;2024-01-15T08:51:32;13.80;82.40
65582;DHT22;52231;40.090;18.348;2024-01-15T08:54:00;13.80;82.30
65582;DHT22;52231;40.090;18.348;2024-01-15T08:56:28;13.80;82.30
65582;DHT22;52231;40.090;18.348;2024-01-15T08:58:56;13.90;82.40
65582;DHT22;52231;40.090;18.348;2024-01-15T09:01:24;14.00;82.30
65582;DHT22;52231;40.090;18.348;2024-01-15T09:03:52;14.10;82.00
65582;DHT22;52231;40.090;18.348;2024-01-15T09:06:20;14.10;81.60
65582;DHT22;52231;40.090;18.348;2024-01-15T09:08:48;14.10;81.60
65582;DHT22;52231;40.090;18.348;2024-01-15T09:11:16;14.30;81.50
65582;DHT22;52231;40.090;18.348;2024-01-15T09:13:44;14.30;81.30
65582;DHT22;52231;40.090;18.348;2024-01-15T09:16:12;14.30;81.00
65582;DHT22;52231;40.090;18.348;2024-01-15T09:18:40;14.70;80.80
65582;DHT22;52231;40.090;18.348;2024-01-15T09:21:08;14.90;80.10
65582;DHT22;52231;40.090;18.348;2024-01-15T09:23:37;15.00;79.30
65582;DHT22;52231;40.090;18.348;2024-01-15T09:26:08;15.10;79.00
65582;DHT22;52231;40.090;18.348;2024-01-15T09:28:36;15.20;78.70
65582;DHT22;52231;40.090;18.348;2024-01-15T09:31:05;15.10;78.20
65582;DHT22;52231;40.090;18.348;2024-01-15T09:33:33;15.00;77.60
65582;DHT22;52231;40.090;18.348;2024-01-15T09:36:03;14.90;77.40
65582;DHT22;52231;40.090;18.348;2024-01-15T09:38:32;14.80;77.40
65582;DHT22;52231;40.090;18.348;2024-01-15T09:41:00;14.80;77.80
65582;DHT22;52231;40.090;18.348;2024-01-15T09:43:28;14.90;77.70
65582;DHT22;52231;40.090;18.348;2024-01-15T09:45:57;14.90;77.70
65582;DHT22;52231;40.090;18.348;2024-01-15T09:48:25;15.00;77.90
65582;DHT22;52231;40.090;18.348;2024-01-15T09:50:54;15.00;77.50
65582;DHT22;52231;40.090;18.348;2024-01-15T09:53:22;15.10;77.70
65582;DHT22;52231;40.090;18.348;2024-01-15T09:55:52;15.20;77.50
65582;DHT22;52231;40.090;18.348;2024-01-15T09:58:20;15.30;77.70
65582;DHT22;52231;40.090;18.348;2024-01-15T10:00:49;15.30;77.50
65582;DHT22;52231;40.090;18.348;2024-01-15T10:03:18;15.40;77.50
65582;DHT22;52231;40.090;18.348;2024-01-15T10:05:46;15.70;77.40
65582;DHT22;52231;40.090;18.348;2024-01-15T10:08:14;15.90;76.70
65582;DHT22;52231;40.090;18.348;2024-01-15T10:10:43;16.10;75.60
65582;DHT22;52231;40.090;18.348;2024-01-15T10:13:11;16.30;74.70
65582;DHT22;52231;40.090;18.348;2024-01-15T10:15:39;16.30;74.40
65582;DHT22;52231;40.090;18.348;2024-01-15T10:18:07;16.40;74.50
65582;DHT22;52231;40.090;18.348;2024-01-15T10:20:35;16.40;74.50
65582;DHT22;52231;40.090;18.348;2024-01-15T10:23:03;16.40;74.10
65582;DHT22;52231;40.090;18.348;2024-01-15T10:25:32;16.50;74.10
65582;DHT22;52231;40.090;18.348;2024-01-15T10:28:01;16.50;73.30
65582;DHT22;52231;40.090;18.348;2024-01-15T10:30:31;16.40;73.60
65582;DHT22;52231;40.090;18.348;2024-01-15T10:33:01;16.50;73.60
65582;DHT22;52231;40.090;18.348;2024-01-15T10:35:34;16.30;73.50
65582;DHT22;52231;40.090;18.348;2024-01-15T10:38:03;16.30;72.70
65582;DHT22;52231;40.090;18.348;2024-01-15T10:40:31;16.20;72.00
65582;DHT22;52231;40.090;18.348;2024-01-15T10:42:59;16.30;71.60
65582;DHT22;52231;40.090;18.348;2024-01-15T10:45:27;16.30;70.60
65582;DHT22;52231;40.090;18.348;2024-01-15T10:47:55;16.50;69.20
65582;DHT22;52231;40.090;18.348;2024-01-15T10:50:27;16.50;68.40
65582;DHT22;52231;40.090;18.348;2024-01-15T10:52:55;16.80;67.10
65582;DHT22;52231;40.090;18.348;2024-01-15T10:55:24;16.90;66.40
65582;DHT22;52231;40.090;18.348;2024-01-15T10:57:54;17.00;66.30
65582;DHT22;52231;40.090;18.348;2024-01-15T11:00:24;16.90;66.30
65582;DHT22;52231;40.090;18.348;2024-01-15T11:02:53;16.90;66.70
65582;DHT22;52231;40.090;18.348;2024-01-15T11:05:25;16.90;67.00
65582;DHT22;52231;40.090;18.348;2024-01-15T11:07:58;17.00;66.80
65582;DHT22;52231;40.090;18.348;2024-01-15T11:10:40;17.10;66.90
65582;DHT22;52231;40.090;18.348;2024-01-15T11:13:39;17.30;67.00
65582;DHT22;52231;40.090;18.348;2024-01-15T11:16:10;17.40;66.70
65582;DHT22;52231;40.090;18.348;2024-01-15T11:18:43;17.50;66.90
65582;DHT22;52231;40.090;18.348;2024-01-15T11:23:47;17.40;65.20
65582;DHT22;52231;40.090;18.348;2024-01-15T11:26:37;17.30;66.40
65582;DHT22;52231;40.090;18.348;2024-01-15T11:31:58;16.70;67.40
65582;DHT22;52231;40.090;18.348;2024-01-15T11:34:50;16.80;68.00
65582;DHT22;52231;40.090;18.348;2024-01-15T11:37:19;16.80;67.40
65582;DHT22;52231;40.090;18.348;2024-01-15T11:39:47;16.70;67.70
65582;DHT22;52231;40.090;18.348;2024-01-15T11:42:16;16.70;68.00
65582;DHT22;52231;40.090;18.348;2024-01-15T11:44:44;16.40;68.80
65582;DHT22;52231;40.090;18.348;2024-01-15T11:47:13;16.30;69.70
65582;DHT22;52231;40.090;18.348;2024-01-15T11:50:04;16.30;69.50
65582;DHT22;52231;40.090;18.348;2024-01-15T11:53:00;16.30;69.10
65582;DHT22;52231;40.090;18.348;2024-01-15T11:55:34;16.50;68.40
65582;DHT22;52231;40.090;18.348;2024-01-15T11:58:10;16.60;66.80
65582;DHT22;52231;40.090;18.348;2024-01-15T12:00:47;17.00;66.80
65582;DHT22;52231;40.090;18.348;2024-01-15T12:03:16;17.10;66.20
65582;DHT22;52231;40.090;18.348;2024-01-15T12:05:44;17.10;66.10
65582;DHT22;52231;40.090;18.348;2024-01-15T12:08:12;17.00;65.70
65582;DHT22;52231;40.090;18.348;2024-01-15T12:10:41;17.00;65.50
65582;DHT22;52231;40.090;18.348;2024-01-15T12:13:15;17.00;64.70
65582;DHT22;52231;40.090;18.348;2024-01-15T12:15:47;17.00;63.20
65582;DHT22;52231;40.090;18.348;2024-01-15T12:18:18;17.00;63.80
65582;DHT22;52231;40.090;18.348;2024-01-15T12:21:05;17.10;64.10
65582;DHT22;52231;40.090;18.348;2024-01-15T12:23:34;17.10;64.00
65582;DHT22;52231;40.090;18.348;2024-01-15T12:26:02;17.10;64.80
65582;DHT22;52231;40.090;18.348;2024-01-15T12:28:30;16.90;65.80
65582;DHT22;52231;40.090;18.348;2024-01-15T12:30:59;16.80;65.80
65582;DHT22;52231;40.090;18.348;2024-01-15T12:33:28;16.80;66.20
65582;DHT22;52231;40.090;18.348;2024-01-15T12:35:56;16.80;65.60
65582;DHT22;52231;40.090;18.348;2024-01-15T12:38:24;16.80;64.90
65582;DHT22;52231;40.090;18.348;2024-01-15T12:40:53;16.60;64.80
65582;DHT22;52231;40.090;18.348;2024-01-15T12:43:22;16.40;66.10
65582;DHT22;52231;40.090;18.348;2024-01-15T12:45:51;16.30;67.20
65582;DHT22;52231;40.090;18.348;2024-01-15T12:48:18;16.20;68.00
65582;DHT22;52231;40.090;18.348;2024-01-15T12:50:47;15.90;68.40
65582;DHT22;52231;40.090;18.348;2024-01-15T12:53:15;15.60;68.20
65582;DHT22;52231;40.090;18.348;2024-01-15T12:55:46;15.40;68.80
65582;DHT22;52231;40.090;18.348;2024-01-15T12:58:14;15.30;69.30
65582;DHT22;52231;40.090;18.348;2024-01-15T13:00:42;15.10;70.50
65582;DHT22;52231;40.090;18.348;2024-01-15T13:03:11;14.90;72.30
65582;DHT22;52231;40.090;18.348;2024-01-15T13:05:40;14.50;74.20
65582;DHT22;52231;40.090;18.348;2024-01-15T13:08:09;14.20;76.00
65582;DHT22;52231;40.090;18.348;2024-01-15T13:10:37;14.00;77.70
65582;DHT22;52231;40.090;18.348;2024-01-15T13:13:05;13.80;79.40
65582;DHT22;52231;40.090;18.348;2024-01-15T13:15:35;13.60;80.70
65582;DHT22;52231;40.090;18.348;2024-01-15T13:18:03;13.50;81.30
65582;DHT22;52231;40.090;18.348;2024-01-15T13:20:32;13.50;82.20
65582;DHT22;52231;40.090;18.348;2024-01-15T13:23:00;13.40;82.60
65582;DHT22;52231;40.090;18.348;2024-01-15T13:25:30;13.30;82.80
65582;DHT22;52231;40.090;18.348;2024-01-15T13:27:59;13.40;83.30
65582;DHT22;52231;40.090;18.348;2024-01-15T13:30:27;13.50;83.70
65582;DHT22;52231;40.090;18.348;2024-01-15T13:32:55;13.40;84.10
65582;DHT22;52231;40.090;18.348;2024-01-15T13:35:24;13.40;84.50
65582;DHT22;52231;40.090;18.348;2024-01-15T13:37:53;13.30;84.70
65582;DHT22;52231;40.090;18.348;2024-01-15T13:40:26;13.30;84.80
65582;DHT22;52231;40.090;18.348;2024-01-15T13:42:55;13.20;85.00
65582;DHT22;52231;40.090;18.348;2024-01-15T13:45:23;13.20;85.40
65582;DHT22;52231;40.090;18.348;2024-01-15T13:47:52;13.10;85.60
65582;DHT22;52231;40.090;18.348;2024-01-15T13:50:21;13.10;85.70
65582;DHT22;52231;40.090;18.348;2024-01-15T13:52:51;13.00;85.70
65582;DHT22;52231;40.090;18.348;2024-01-15T13:55:18;13.00;85.90
65582;DHT22;52231;40.090;18.348;2024-01-15T13:57:48;13.00;85.90
65582;DHT22;52231;40.090;18.348;2024-01-15T14:00:16;12.80;85.90
65582;DHT22;52231;40.090;18.348;2024-01-15T14:02:48;12.80;86.00
65582;DHT22;52231;40.090;18.348;2024-01-15T14:05:16;12.90;86.30
65582;DHT22;52231;40.090;18.348;2024-01-15T14:07:44;12.90;86.40
65582;DHT22;52231;40.090;18.348;2024-01-15T14:10:12;12.90;86.50
65582;DHT22;52231;40.090;18.348;2024-01-15T14:12:41;12.90;86.60
65582;DHT22;52231;40.090;18.348;2024-01-15T14:15:09;12.80;86.80
65582;DHT22;52231;40.090;18.348;2024-01-15T14:17:38;12.80;86.90
65582;DHT22;52231;40.090;18.348;2024-01-15T14:20:06;12.80;87.00
65582;DHT22;52231;40.090;18.348;2024-01-15T14:22:37;12.70;87.00
65582;DHT22;52231;40.090;18.348;2024-01-15T14:25:06;12.60;87.10
65582;DHT22;52231;40.090;18.348;2024-01-15T14:27:35;12.70;87.10
65582;DHT22;52231;40.090;18.348;2024-01-15T14:30:05;12.80;87.30
65582;DHT22;52231;40.090;18.348;2024-01-15T14:32:54;12.60;87.20
65582;DHT22;52231;40.090;18.348;2024-01-15T14:35:22;12.80;87.50
65582;DHT22;52231;40.090;18.348;2024-01-15T14:37:50;12.80;87.50
65582;DHT22;52231;40.090;18.348;2024-01-15T14:40:19;12.90;87.50
65582;DHT22;52231;40.090;18.348;2024-01-15T14:42:47;12.90;87.50
65582;DHT22;52231;40.090;18.348;2024-01-15T14:45:15;12.80;87.30
65582;DHT22;52231;40.090;18.348;2024-01-15T14:47:43;13.00;87.40
65582;DHT22;52231;40.090;18.348;2024-01-15T14:50:12;12.80;87.30
65582;DHT22;52231;40.090;18.348;2024-01-15T14:52:40;13.10;87.30
65582;DHT22;52231;40.090;18.348;2024-01-15T14:55:10;13.10;87.30
65582;DHT22;52231;40.090;18.348;2024-01-15T14:57:38;13.00;87.30
65582;DHT22;52231;40.090;18.348;2024-01-15T15:00:07;13.10;87.30
65582;DHT22;52231;40.090;18.348;2024-01-15T15:02:36;13.00;87.30
65582;DHT22;52231;40.090;18.348;2024-01-15T15:05:05;13.00;87.40
65582;DHT22;52231;40.090;18.348;2024-01-15T15:07:34;13.10;87.40
65582;DHT22;52231;40.090;18.348;2024-01-15T15:10:05;12.90;87.40
65582;DHT22;52231;40.090;18.348;2024-01-15T15:12:33;12.90;87.40
65582;DHT22;52231;40.090;18.348;2024-01-15T15:15:02;12.80;87.40
65582;DHT22;52231;40.090;18.348;2024-01-15T15:17:33;12.90;87.40
65582;DHT22;52231;40.090;18.348;2024-01-15T15:20:02;12.80;87.50
65582;DHT22;52231;40.090;18.348;2024-01-15T15:22:30;12.90;87.60
65582;DHT22;52231;40.090;18.348;2024-01-15T15:24:59;12.90;87.60
65582;DHT22;52231;40.090;18.348;2024-01-15T15:27:27;12.80;87.70
65582;DHT22;52231;40.090;18.348;2024-01-15T15:29:56;12.70;87.70
65582;DHT22;52231;40.090;18.348;2024-01-15T15:32:24;12.80;87.80
65582;DHT22;52231;40.090;18.348;2024-01-15T15:34:53;12.50;87.70
65582;DHT22;52231;40.090;18.348;2024-01-15T15:37:21;12.70;87.80
65582;DHT22;52231;40.090;18.348;2024-01-15T15:39:49;12.70;87.90